sensor_id;sensor_type;location;lat;lon;timestamp;P1;durP1;ratioP1;P2;durP2;ratioP2
16254;SDS011;8235;52.198;9.904;2023-04-06T00:00:12;10.57;;;9.47;;
16254;SDS011;8235;52.198;9.904;2023-04-06T00:02:40;9.27;;;7.47;;
16254;SDS011;8235;52.198;9.904;2023-04-06T00:05:09;8.83;;;8.00;;
16254;SDS011;8235;52.198;9.904;2023-04-06T00:07:35;9.97;;;8.97;;
16254;SDS011;8235;52.198;9.904;2023-04-06T00:10:02;9.43;;;8.33;;
16254;SDS011;8235;52.198;9.904;2023-04-06T00:12:30;9.67;;;8.73;;
16254;SDS011;8235;52.198;9.904;2023-04-06T00:14:56;9.07;;;8.10;;
16254;SDS011;8235;52.198;9.904;2023-04-06T00:17:23;10.50;;;9.33;;
16254;SDS011;8235;52.198;9.904;2023-04-06T00:19:49;11.30;;;9.17;;
16254;SDS011;8235;52.198;9.904;2023-04-06T00:22:17;13.30;;;9.53;;
16254;SDS011;8235;52.198;9.904;2023-04-06T00:24:44;10.60;;;8.33;;
16254;SDS011;8235;52.198;9.904;2023-04-06T00:27:10;9.50;;;7.50;;
16254;SDS011;8235;52.198;9.904;2023-04-06T00:29:37;8.77;;;6.43;;
16254;SDS011;8235;52.198;9.904;2023-04-06T00:32:05;8.10;;;7.10;;
16254;SDS011;8235;52.198;9.904;2023-04-06T00:34:32;7.40;;;6.43;;
16254;SDS011;8235;52.198;9.904;2023-04-06T00:36:58;7.33;;;6.40;;
16254;SDS011;8235;52.198;9.904;2023-04-06T00:39:26;8.10;;;6.77;;
16254;SDS011;8235;52.198;9.904;2023-04-06T00:41:53;8.30;;;7.23;;
16254;SDS011;8235;52.198;9.904;2023-04-06T00:44:20;10.33;;;8.13;;
16254;SDS011;8235;52.198;9.904;2023-04-06T00:46:47;10.03;;;8.90;;
16254;SDS011;8235;52.198;9.904;2023-04-06T00:49:14;14.17;;;8.13;;
16254;SDS011;8235;52.198;9.904;2023-04-06T00:51:40;11.17;;;7.47;;
16254;SDS011;8235;52.198;9.904;2023-04-06T00:54:07;9.63;;;7.90;;
16254;SDS011;8235;52.198;9.904;2023-04-06T00:56:35;8.87;;;7.97;;
16254;SDS011;8235;52.198;9.904;2023-04-06T00:59:01;9.27;;;7.73;;
16254;SDS011;8235;52.198;9.904;2023-04-06T01:01:28;10.00;;;7.97;;
16254;SDS011;8235;52.198;9.904;2023-04-06T01:03:57;9.67;;;8.00;;
16254;SDS011;8235;52.198;9.904;2023-04-06T01:06:24;9.07;;;7.37;;
16254;SDS011;8235;52.198;9.904;2023-04-06T01:08:50;9.80;;;7.13;;
16254;SDS011;8235;52.198;9.904;2023-04-06T01:11:17;9.87;;;7.67;;
16254;SDS011;8235;52.198;9.904;2023-04-06T01:13:45;7.90;;;7.10;;
16254;SDS011;8235;52.198;9.904;2023-04-06T01:16:12;10.90;;;7.67;;
16254;SDS011;8235;52.198;9.904;2023-04-06T01:18:38;9.73;;;7.60;;
16254;SDS011;8235;52.198;9.904;2023-04-06T01:21:05;10.30;;;8.03;;
16254;SDS011;8235;52.198;9.904;2023-04-06T01:23:35;10.87;;;7.77;;
16254;SDS011;8235;52.198;9.904;2023-04-06T01:26:01;8.40;;;7.33;;
16254;SDS011;8235;52.198;9.904;2023-04-06T01:28:28;8.83;;;7.50;;
16254;SDS011;8235;52.198;9.904;2023-04-06T01:30:54;8.20;;;7.10;;
16254;SDS011;8235;52.198;9.904;2023-04-06T01:33:21;8.70;;;7.80;;
16254;SDS011;8235;52.198;9.904;2023-04-06T01:35:47;8.00;;;7.20;;
16254;SDS011;8235;52.198;9.904;2023-04-06T01:38:14;9.13;;;8.03;;
16254;SDS011;8235;52.198;9.904;2023-04-06T01:40:42;11.93;;;9.10;;
16254;SDS011;8235;52.198;9.904;2023-04-06T01:43:09;12.60;;;9.40;;
16254;SDS011;8235;52.198;9.904;2023-04-06T01:45:35;10.50;;;9.40;;
16254;SDS011;8235;52.198;9.904;2023-04-06T01:48:02;10.20;;;9.20;;
16254;SDS011;8235;52.198;9.904;2023-04-06T01:50:28;11.77;;;8.73;;
16254;SDS011;8235;52.198;9.904;2023-04-06T01:52:55;12.27;;;9.37;;
16254;SDS011;8235;52.198;9.904;2023-04-06T01:55:21;9.63;;;8.27;;
16254;SDS011;8235;52.198;9.904;2023-04-06T01:57:49;10.20;;;8.80;;
16254;SDS011;8235;52.198;9.904;2023-04-06T02:00:16;10.27;;;8.97;;
16254;SDS011;8235;52.198;9.904;2023-04-06T02:02:43;11.40;;;8.83;;
16254;SDS011;8235;52.198;9.904;2023-04-06T02:05:10;10.07;;;8.70;;
16254;SDS011;8235;52.198;9.904;2023-04-06T02:07:37;10.33;;;8.43;;
16254;SDS011;8235;52.198;9.904;2023-04-06T02:10:03;9.50;;;8.60;;
16254;SDS011;8235;52.198;9.904;2023-04-06T02:12:36;9.37;;;8.47;;
16254;SDS011;8235;52.198;9.904;2023-04-06T02:15:05;9.87;;;8.30;;
16254;SDS011;8235;52.198;9.904;2023-04-06T02:17:32;10.93;;;8.63;;
16254;SDS011;8235;52.198;9.904;2023-04-06T02:19:58;9.80;;;8.77;;
16254;SDS011;8235;52.198;9.904;2023-04-06T02:22:25;11.27;;;9.00;;
16254;SDS011;8235;52.198;9.904;2023-04-06T02:24:51;10.07;;;7.90;;
16254;SDS011;8235;52.198;9.904;2023-04-06T02:27:18;10.87;;;8.60;;
16254;SDS011;8235;52.198;9.904;2023-04-06T02:29:44;10.30;;;8.60;;
16254;SDS011;8235;52.198;9.904;2023-04-06T02:32:12;9.83;;;7.93;;
16254;SDS011;8235;52.198;9.904;2023-04-06T02:34:39;12.53;;;8.83;;
16254;SDS011;8235;52.198;9.904;2023-04-06T02:37:05;10.67;;;8.33;;
16254;SDS011;8235;52.198;9.904;2023-04-06T02:39:32;9.00;;;8.10;;
16254;SDS011;8235;52.198;9.904;2023-04-06T02:41:59;11.40;;;9.13;;
16254;SDS011;8235;52.198;9.904;2023-04-06T02:44:25;8.97;;;7.97;;
16254;SDS011;8235;52.198;9.904;2023-04-06T02:46:52;9.57;;;7.90;;
16254;SDS011;8235;52.198;9.904;2023-04-06T02:49:19;10.13;;;8.83;;
16254;SDS011;8235;52.198;9.904;2023-04-06T02:51:46;11.37;;;8.77;;
16254;SDS011;8235;52.198;9.904;2023-04-06T02:54:13;12.43;;;8.93;;
16254;SDS011;8235;52.198;9.904;2023-04-06T02:56:39;11.73;;;8.73;;
16254;SDS011;8235;52.198;9.904;2023-04-06T02:59:06;10.73;;;8.50;;
16254;SDS011;8235;52.198;9.904;2023-04-06T03:01:32;11.83;;;8.90;;
16254;SDS011;8235;52.198;9.904;2023-04-06T03:03:59;11.17;;;8.50;;
16254;SDS011;8235;52.198;9.904;2023-04-06T03:06:27;13.10;;;10.13;;
16254;SDS011;8235;52.198;9.904;2023-04-06T03:08:54;10.53;;;8.60;;
16254;SDS011;8235;52.198;9.904;2023-04-06T03:11:20;9.43;;;8.27;;
16254;SDS011;8235;52.198;9.904;2023-04-06T03:13:47;10.07;;;7.97;;
16254;SDS011;8235;52.198;9.904;2023-04-06T03:16:13;10.43;;;8.20;;
16254;SDS011;8235;52.198;9.904;2023-04-06T03:18:40;11.60;;;8.07;;
16254;SDS011;8235;52.198;9.904;2023-04-06T03:21:06;9.83;;;7.57;;
16254;SDS011;8235;52.198;9.904;2023-04-06T03:23:34;9.17;;;7.37;;
16254;SDS011;8235;52.198;9.904;2023-04-06T03:26:00;9.80;;;6.90;;
16254;SDS011;8235;52.198;9.904;2023-04-06T03:28:27;9.30;;;7.40;;
16254;SDS011;8235;52.198;9.904;2023-04-06T03:30:54;8.70;;;7.33;;
16254;SDS011;8235;52.198;9.904;2023-04-06T03:33:20;10.33;;;6.73;;
16254;SDS011;8235;52.198;9.904;2023-04-06T03:35:47;10.73;;;7.77;;
16254;SDS011;8235;52.198;9.904;2023-04-06T03:38:13;8.60;;;7.00;;
16254;SDS011;8235;52.198;9.904;2023-04-06T03:40:42;7.87;;;6.90;;
16254;SDS011;8235;52.198;9.904;2023-04-06T03:43:08;7.93;;;6.50;;
16254;SDS011;8235;52.198;9.904;2023-04-06T03:45:35;6.97;;;5.80;;
16254;SDS011;8235;52.198;9.904;2023-04-06T03:48:01;8.20;;;6.80;;
16254;SDS011;8235;52.198;9.904;2023-04-06T03:50:28;7.93;;;6.20;;
16254;SDS011;8235;52.198;9.904;2023-04-06T03:52:54;9.50;;;6.13;;
16254;SDS011;8235;52.198;9.904;2023-04-06T03:55:21;10.03;;;7.70;;
16254;SDS011;8235;52.198;9.904;2023-04-06T03:57:49;8.97;;;7.17;;
16254;SDS011;8235;52.198;9.904;2023-04-06T04:00:15;10.03;;;7.03;;
16254;SDS011;8235;52.198;9.904;2023-04-06T04:02:42;12.87;;;7.77;;
16254;SDS011;8235;52.198;9.904;2023-04-06T04:05:09;10.17;;;8.03;;
16254;SDS011;8235;52.198;9.904;2023-04-06T04:07:35;10.30;;;8.13;;
16254;SDS011;8235;52.198;9.904;2023-04-06T04:10:02;11.10;;;8.13;;
16254;SDS011;8235;52.198;9.904;2023-04-06T04:12:29;9.63;;;7.77;;
16254;SDS011;8235;52.198;9.904;2023-04-06T04:14:57;10.63;;;8.07;;
16254;SDS011;8235;52.198;9.904;2023-04-06T04:17:24;9.20;;;7.67;;
16254;SDS011;8235;52.198;9.904;2023-04-06T04:19:50;11.90;;;9.00;;
16254;SDS011;8235;52.198;9.904;2023-04-06T04:22:17;10.50;;;8.77;;
16254;SDS011;8235;52.198;9.904;2023-04-06T04:24:43;10.57;;;8.43;;
16254;SDS011;8235;52.198;9.904;2023-04-06T04:27:10;10.90;;;8.63;;
16254;SDS011;8235;52.198;9.904;2023-04-06T04:29:36;15.53;;;9.03;;
16254;SDS011;8235;52.198;9.904;2023-04-06T04:32:04;12.00;;;9.13;;
16254;SDS011;8235;52.198;9.904;2023-04-06T04:34:31;10.90;;;8.60;;
16254;SDS011;8235;52.198;9.904;2023-04-06T04:36:57;14.27;;;8.33;;
16254;SDS011;8235;52.198;9.904;2023-04-06T04:39:24;11.53;;;9.20;;
16254;SDS011;8235;52.198;9.904;2023-04-06T04:41:50;10.20;;;8.47;;
16254;SDS011;8235;52.198;9.904;2023-04-06T04:44:18;10.60;;;8.17;;
16254;SDS011;8235;52.198;9.904;2023-04-06T04:46:45;10.77;;;8.20;;
16254;SDS011;8235;52.198;9.904;2023-04-06T04:49:13;11.30;;;8.63;;
16254;SDS011;8235;52.198;9.904;2023-04-06T04:51:39;13.37;;;9.40;;
16254;SDS011;8235;52.198;9.904;2023-04-06T04:54:06;11.47;;;9.23;;
16254;SDS011;8235;52.198;9.904;2023-04-06T04:56:33;12.43;;;8.67;;
16254;SDS011;8235;52.198;9.904;2023-04-06T04:58:59;13.30;;;8.77;;
16254;SDS011;8235;52.198;9.904;2023-04-06T05:01:26;11.53;;;9.10;;
16254;SDS011;8235;52.198;9.904;2023-04-06T05:03:52;13.53;;;8.70;;
16254;SDS011;8235;52.198;9.904;2023-04-06T05:06:20;14.00;;;8.83;;
16254;SDS011;8235;52.198;9.904;2023-04-06T05:08:47;10.53;;;8.90;;
16254;SDS011;8235;52.198;9.904;2023-04-06T05:11:13;12.17;;;7.70;;
16254;SDS011;8235;52.198;9.904;2023-04-06T05:13:40;11.73;;;8.77;;
16254;SDS011;8235;52.198;9.904;2023-04-06T05:16:06;9.73;;;8.03;;
16254;SDS011;8235;52.198;9.904;2023-04-06T05:18:33;11.93;;;8.60;;
16254;SDS011;8235;52.198;9.904;2023-04-06T05:21:00;12.33;;;9.23;;
16254;SDS011;8235;52.198;9.904;2023-04-06T05:23:28;12.67;;;9.20;;
16254;SDS011;8235;52.198;9.904;2023-04-06T05:25:54;12.03;;;8.73;;
16254;SDS011;8235;52.198;9.904;2023-04-06T05:28:21;10.77;;;8.90;;
16254;SDS011;8235;52.198;9.904;2023-04-06T05:30:48;13.20;;;10.00;;
16254;SDS011;8235;52.198;9.904;2023-04-06T05:33:14;11.17;;;9.00;;
16254;SDS011;8235;52.198;9.904;2023-04-06T05:35:41;11.87;;;9.13;;
16254;SDS011;8235;52.198;9.904;2023-04-06T05:38:08;14.27;;;9.20;;
16254;SDS011;8235;52.198;9.904;2023-04-06T05:40:37;14.73;;;9.33;;
16254;SDS011;8235;52.198;9.904;2023-04-06T05:43:05;12.37;;;8.40;;
16254;SDS011;8235;52.198;9.904;2023-04-06T05:45:32;13.50;;;9.87;;
16254;SDS011;8235;52.198;9.904;2023-04-06T05:48:00;13.00;;;8.87;;
16254;SDS011;8235;52.198;9.904;2023-04-06T05:50:26;10.90;;;8.87;;
16254;SDS011;8235;52.198;9.904;2023-04-06T05:52:53;17.77;;;9.30;;
16254;SDS011;8235;52.198;9.904;2023-04-06T05:55:19;10.73;;;7.93;;
16254;SDS011;8235;52.198;9.904;2023-04-06T05:57:47;11.13;;;8.33;;
16254;SDS011;8235;52.198;9.904;2023-04-06T06:00:14;9.77;;;7.97;;
16254;SDS011;8235;52.198;9.904;2023-04-06T06:02:41;9.57;;;7.47;;
16254;SDS011;8235;52.198;9.904;2023-04-06T06:05:08;8.90;;;8.00;;
16254;SDS011;8235;52.198;9.904;2023-04-06T06:07:35;11.43;;;8.17;;
16254;SDS011;8235;52.198;9.904;2023-04-06T06:10:01;11.93;;;8.43;;
16254;SDS011;8235;52.198;9.904;2023-04-06T06:12:28;12.63;;;9.10;;
16254;SDS011;8235;52.198;9.904;2023-04-06T06:14:56;10.20;;;8.20;;
16254;SDS011;8235;52.198;9.904;2023-04-06T06:17:23;9.27;;;7.43;;
16254;SDS011;8235;52.198;9.904;2023-04-06T06:19:49;10.63;;;8.37;;
16254;SDS011;8235;52.198;9.904;2023-04-06T06:22:16;11.07;;;7.97;;
16254;SDS011;8235;52.198;9.904;2023-04-06T06:24:43;13.43;;;7.83;;
16254;SDS011;8235;52.198;9.904;2023-04-06T06:27:09;16.00;;;9.07;;
16254;SDS011;8235;52.198;9.904;2023-04-06T06:29:36;17.77;;;9.63;;
16254;SDS011;8235;52.198;9.904;2023-04-06T06:32:04;12.53;;;9.60;;
16254;SDS011;8235;52.198;9.904;2023-04-06T06:34:31;13.00;;;8.73;;
16254;SDS011;8235;52.198;9.904;2023-04-06T06:36:57;13.83;;;8.70;;
16254;SDS011;8235;52.198;9.904;2023-04-06T06:39:24;9.73;;;8.47;;
16254;SDS011;8235;52.198;9.904;2023-04-06T06:41:51;9.60;;;7.50;;
16254;SDS011;8235;52.198;9.904;2023-04-06T06:44:19;9.33;;;7.80;;
16254;SDS011;8235;52.198;9.904;2023-04-06T06:46:46;15.50;;;7.57;;
16254;SDS011;8235;52.198;9.904;2023-04-06T06:49:14;9.70;;;8.17;;
16254;SDS011;8235;52.198;9.904;2023-04-06T06:51:41;11.33;;;7.30;;
16254;SDS011;8235;52.198;9.904;2023-04-06T06:54:07;10.77;;;7.23;;
16254;SDS011;8235;52.198;9.904;2023-04-06T06:56:34;13.30;;;7.30;;
16254;SDS011;8235;52.198;9.904;2023-04-06T06:59:02;7.90;;;5.80;;
16254;SDS011;8235;52.198;9.904;2023-04-06T07:01:30;9.27;;;6.67;;
16254;SDS011;8235;52.198;9.904;2023-04-06T07:03:58;7.90;;;6.23;;
16254;SDS011;8235;52.198;9.904;2023-04-06T07:06:26;9.73;;;6.90;;
16254;SDS011;8235;52.198;9.904;2023-04-06T07:08:52;10.63;;;6.60;;
16254;SDS011;8235;52.198;9.904;2023-04-06T07:11:19;7.07;;;5.73;;
16254;SDS011;8235;52.198;9.904;2023-04-06T07:13:45;6.03;;;5.13;;
16254;SDS011;8235;52.198;9.904;2023-04-06T07:16:12;6.37;;;5.67;;
16254;SDS011;8235;52.198;9.904;2023-04-06T07:18:38;7.60;;;5.77;;
16254;SDS011;8235;52.198;9.904;2023-04-06T07:21:05;7.37;;;6.30;;
16254;SDS011;8235;52.198;9.904;2023-04-06T07:23:33;6.60;;;5.93;;
16254;SDS011;8235;52.198;9.904;2023-04-06T07:26:00;7.47;;;5.30;;
16254;SDS011;8235;52.198;9.904;2023-04-06T07:28:26;6.23;;;5.20;;
16254;SDS011;8235;52.198;9.904;2023-04-06T07:30:53;8.07;;;5.93;;
16254;SDS011;8235;52.198;9.904;2023-04-06T07:33:20;6.23;;;5.50;;
16254;SDS011;8235;52.198;9.904;2023-04-06T07:35:46;6.10;;;5.10;;
16254;SDS011;8235;52.198;9.904;2023-04-06T07:38:13;6.23;;;5.50;;
16254;SDS011;8235;52.198;9.904;2023-04-06T07:40:41;5.93;;;4.73;;
16254;SDS011;8235;52.198;9.904;2023-04-06T07:43:07;8.47;;;4.73;;
16254;SDS011;8235;52.198;9.904;2023-04-06T07:45:34;6.00;;;5.03;;
16254;SDS011;8235;52.198;9.904;2023-04-06T07:48:01;5.67;;;5.00;;
16254;SDS011;8235;52.198;9.904;2023-04-06T07:50:28;5.63;;;4.97;;
16254;SDS011;8235;52.198;9.904;2023-04-06T07:52:54;7.70;;;5.30;;
16254;SDS011;8235;52.198;9.904;2023-04-06T07:55:21;5.93;;;5.13;;
16254;SDS011;8235;52.198;9.904;2023-04-06T07:57:49;7.17;;;5.87;;
16254;SDS011;8235;52.198;9.904;2023-04-06T08:00:15;7.47;;;5.50;;
16254;SDS011;8235;52.198;9.904;2023-04-06T08:02:42;6.17;;;5.60;;
16254;SDS011;8235;52.198;9.904;2023-04-06T08:05:09;6.40;;;5.20;;
16254;SDS011;8235;52.198;9.904;2023-04-06T08:07:36;6.00;;;5.07;;
16254;SDS011;8235;52.198;9.904;2023-04-06T08:10:03;7.23;;;5.33;;
16254;SDS011;8235;52.198;9.904;2023-04-06T08:12:32;6.17;;;4.73;;
16254;SDS011;8235;52.198;9.904;2023-04-06T08:15:00;7.50;;;5.50;;
16254;SDS011;8235;52.198;9.904;2023-04-06T08:17:28;6.73;;;5.30;;
16254;SDS011;8235;52.198;9.904;2023-04-06T08:19:56;6.80;;;5.70;;
16254;SDS011;8235;52.198;9.904;2023-04-06T08:22:22;6.70;;;5.80;;
16254;SDS011;8235;52.198;9.904;2023-04-06T08:24:49;5.73;;;5.20;;
16254;SDS011;8235;52.198;9.904;2023-04-06T08:27:16;6.33;;;5.50;;
16254;SDS011;8235;52.198;9.904;2023-04-06T08:29:43;6.63;;;5.30;;
16254;SDS011;8235;52.198;9.904;2023-04-06T08:32:11;6.47;;;4.97;;
16254;SDS011;8235;52.198;9.904;2023-04-06T08:34:37;6.03;;;5.37;;
16254;SDS011;8235;52.198;9.904;2023-04-06T08:37:04;7.30;;;5.67;;
16254;SDS011;8235;52.198;9.904;2023-04-06T08:39:30;6.10;;;5.27;;
16254;SDS011;8235;52.198;9.904;2023-04-06T08:41:58;7.27;;;5.77;;
16254;SDS011;8235;52.198;9.904;2023-04-06T08:44:27;6.17;;;5.63;;
16254;SDS011;8235;52.198;9.904;2023-04-06T08:46:54;6.70;;;5.43;;
16254;SDS011;8235;52.198;9.904;2023-04-06T08:49:22;6.60;;;5.13;;
16254;SDS011;8235;52.198;9.904;2023-04-06T08:51:49;6.20;;;5.60;;
16254;SDS011;8235;52.198;9.904;2023-04-06T08:54:16;7.63;;;5.60;;
16254;SDS011;8235;52.198;9.904;2023-04-06T08:56:43;5.90;;;5.30;;
16254;SDS011;8235;52.198;9.904;2023-04-06T08:59:10;5.83;;;5.07;;
16254;SDS011;8235;52.198;9.904;2023-04-06T09:01:38;5.43;;;4.93;;
16254;SDS011;8235;52.198;9.904;2023-04-06T09:04:10;6.73;;;5.13;;
16254;SDS011;8235;52.198;9.904;2023-04-06T09:06:38;7.33;;;5.60;;
16254;SDS011;8235;52.198;9.904;2023-04-06T09:09:05;5.77;;;4.87;;
16254;SDS011;8235;52.198;9.904;2023-04-06T09:11:43;7.87;;;5.53;;
16254;SDS011;8235;52.198;9.904;2023-04-06T09:14:10;5.73;;;5.10;;
16254;SDS011;8235;52.198;9.904;2023-04-06T09:16:40;5.30;;;4.80;;
16254;SDS011;8235;52.198;9.904;2023-04-06T09:19:08;8.20;;;5.03;;
16254;SDS011;8235;52.198;9.904;2023-04-06T09:21:35;7.40;;;5.20;;
16254;SDS011;8235;52.198;9.904;2023-04-06T09:24:03;6.87;;;5.83;;
16254;SDS011;8235;52.198;9.904;2023-04-06T09:26:30;7.33;;;5.53;;
16254;SDS011;8235;52.198;9.904;2023-04-06T09:28:58;7.27;;;5.47;;
16254;SDS011;8235;52.198;9.904;2023-04-06T09:31:26;6.13;;;5.10;;
16254;SDS011;8235;52.198;9.904;2023-04-06T09:33:54;6.30;;;5.27;;
16254;SDS011;8235;52.198;9.904;2023-04-06T09:36:29;7.43;;;5.97;;
16254;SDS011;8235;52.198;9.904;2023-04-06T09:38:57;5.90;;;5.30;;
16254;SDS011;8235;52.198;9.904;2023-04-06T09:41:27;8.20;;;5.37;;
16254;SDS011;8235;52.198;9.904;2023-04-06T09:44:01;6.00;;;5.40;;
16254;SDS011;8235;52.198;9.904;2023-04-06T09:46:30;8.33;;;5.20;;
16254;SDS011;8235;52.198;9.904;2023-04-06T09:48:59;5.87;;;5.13;;
16254;SDS011;8235;52.198;9.904;2023-04-06T09:51:26;5.70;;;4.80;;
16254;SDS011;8235;52.198;9.904;2023-04-06T09:53:56;5.80;;;5.27;;
16254;SDS011;8235;52.198;9.904;2023-04-06T09:56:28;7.57;;;5.20;;
16254;SDS011;8235;52.198;9.904;2023-04-06T09:59:02;7.07;;;5.83;;
16254;SDS011;8235;52.198;9.904;2023-04-06T10:01:32;7.73;;;6.00;;
16254;SDS011;8235;52.198;9.904;2023-04-06T10:04:04;5.83;;;4.53;;
16254;SDS011;8235;52.198;9.904;2023-04-06T10:06:39;8.23;;;5.40;;
16254;SDS011;8235;52.198;9.904;2023-04-06T10:09:06;7.00;;;5.67;;
16254;SDS011;8235;52.198;9.904;2023-04-06T10:11:35;6.47;;;4.87;;
16254;SDS011;8235;52.198;9.904;2023-04-06T10:14:02;6.40;;;5.67;;
16254;SDS011;8235;52.198;9.904;2023-04-06T10:16:29;9.10;;;6.13;;
16254;SDS011;8235;52.198;9.904;2023-04-06T10:18:58;6.13;;;5.10;;
16254;SDS011;8235;52.198;9.904;2023-04-06T10:21:28;6.63;;;5.63;;
16254;SDS011;8235;52.198;9.904;2023-04-06T10:23:57;5.70;;;4.97;;
16254;SDS011;8235;52.198;9.904;2023-04-06T10:26:25;8.43;;;5.63;;
16254;SDS011;8235;52.198;9.904;2023-04-06T10:28:54;7.27;;;5.83;;
16254;SDS011;8235;52.198;9.904;2023-04-06T10:31:24;5.93;;;5.20;;
16254;SDS011;8235;52.198;9.904;2023-04-06T10:33:55;6.40;;;5.33;;
16254;SDS011;8235;52.198;9.904;2023-04-06T10:36:22;7.43;;;5.50;;
16254;SDS011;8235;52.198;9.904;2023-04-06T10:38:53;8.40;;;6.07;;
16254;SDS011;8235;52.198;9.904;2023-04-06T10:41:21;7.20;;;5.40;;
16254;SDS011;8235;52.198;9.904;2023-04-06T10:43:55;6.63;;;5.90;;
16254;SDS011;8235;52.198;9.904;2023-04-06T10:46:24;6.17;;;5.40;;
16254;SDS011;8235;52.198;9.904;2023-04-06T10:48:51;8.57;;;6.50;;
16254;SDS011;8235;52.198;9.904;2023-04-06T10:51:18;9.33;;;6.53;;
16254;SDS011;8235;52.198;9.904;2023-04-06T10:53:45;6.73;;;6.13;;
16254;SDS011;8235;52.198;9.904;2023-04-06T10:56:14;6.77;;;5.90;;
16254;SDS011;8235;52.198;9.904;2023-04-06T10:58:44;7.53;;;6.20;;
16254;SDS011;8235;52.198;9.904;2023-04-06T11:01:13;8.53;;;6.03;;
16254;SDS011;8235;52.198;9.904;2023-04-06T11:03:44;6.73;;;6.13;;
16254;SDS011;8235;52.198;9.904;2023-04-06T11:06:17;7.57;;;6.57;;
16254;SDS011;8235;52.198;9.904;2023-04-06T11:08:44;8.50;;;6.37;;
16254;SDS011;8235;52.198;9.904;2023-04-06T11:11:11;6.97;;;6.20;;
16254;SDS011;8235;52.198;9.904;2023-04-06T11:13:40;7.97;;;6.50;;
16254;SDS011;8235;52.198;9.904;2023-04-06T11:16:16;7.67;;;6.20;;
16254;SDS011;8235;52.198;9.904;2023-04-06T11:18:47;8.67;;;6.60;;
16254;SDS011;8235;52.198;9.904;2023-04-06T11:21:15;7.43;;;6.60;;
16254;SDS011;8235;52.198;9.904;2023-04-06T11:23:41;7.27;;;6.57;;
16254;SDS011;8235;52.198;9.904;2023-04-06T11:26:10;7.37;;;6.23;;
16254;SDS011;8235;52.198;9.904;2023-04-06T11:28:37;8.33;;;6.57;;
16254;SDS011;8235;52.198;9.904;2023-04-06T11:31:03;7.93;;;6.67;;
16254;SDS011;8235;52.198;9.904;2023-04-06T11:33:36;9.37;;;7.00;;
16254;SDS011;8235;52.198;9.904;2023-04-06T11:36:03;7.83;;;6.30;;
16254;SDS011;8235;52.198;9.904;2023-04-06T11:38:31;7.53;;;6.77;;
16254;SDS011;8235;52.198;9.904;2023-04-06T11:40:57;7.40;;;6.37;;
16254;SDS011;8235;52.198;9.904;2023-04-06T11:43:28;7.63;;;6.60;;
16254;SDS011;8235;52.198;9.904;2023-04-06T11:45:59;10.43;;;7.10;;
16254;SDS011;8235;52.198;9.904;2023-04-06T11:48:27;7.73;;;7.03;;
16254;SDS011;8235;52.198;9.904;2023-04-06T11:50:59;7.97;;;7.17;;
16254;SDS011;8235;52.198;9.904;2023-04-06T11:53:27;8.03;;;7.23;;
16254;SDS011;8235;52.198;9.904;2023-04-06T11:55:54;10.03;;;7.27;;
16254;SDS011;8235;52.198;9.904;2023-04-06T11:58:21;8.03;;;7.23;;
16254;SDS011;8235;52.198;9.904;2023-04-06T12:00:47;8.47;;;7.33;;
16254;SDS011;8235;52.198;9.904;2023-04-06T12:03:14;8.33;;;7.47;;
16254;SDS011;8235;52.198;9.904;2023-04-06T12:05:41;9.30;;;7.77;;
16254;SDS011;8235;52.198;9.904;2023-04-06T12:08:09;9.97;;;7.50;;
16254;SDS011;8235;52.198;9.904;2023-04-06T12:10:35;10.80;;;7.67;;
16254;SDS011;8235;52.198;9.904;2023-04-06T12:13:02;7.83;;;7.00;;
16254;SDS011;8235;52.198;9.904;2023-04-06T12:15:29;9.07;;;7.33;;
16254;SDS011;8235;52.198;9.904;2023-04-06T12:17:56;9.10;;;7.40;;
16254;SDS011;8235;52.198;9.904;2023-04-06T12:20:23;9.00;;;7.90;;
16254;SDS011;8235;52.198;9.904;2023-04-06T12:22:49;9.93;;;8.13;;
16254;SDS011;8235;52.198;9.904;2023-04-06T12:25:18;14.10;;;8.80;;
16254;SDS011;8235;52.198;9.904;2023-04-06T12:27:44;9.17;;;7.77;;
16254;SDS011;8235;52.198;9.904;2023-04-06T12:30:11;10.13;;;7.80;;
16254;SDS011;8235;52.198;9.904;2023-04-06T12:32:38;10.80;;;7.93;;
16254;SDS011;8235;52.198;9.904;2023-04-06T12:35:05;8.43;;;7.50;;
16254;SDS011;8235;52.198;9.904;2023-04-06T12:37:36;9.40;;;7.97;;
16254;SDS011;8235;52.198;9.904;2023-04-06T12:40:03;8.73;;;7.93;;
16254;SDS011;8235;52.198;9.904;2023-04-06T12:42:31;10.73;;;7.97;;
16254;SDS011;8235;52.198;9.904;2023-04-06T12:44:58;9.83;;;7.70;;
16254;SDS011;8235;52.198;9.904;2023-04-06T12:47:25;9.47;;;8.23;;
16254;SDS011;8235;52.198;9.904;2023-04-06T12:49:52;8.53;;;7.60;;
16254;SDS011;8235;52.198;9.904;2023-04-06T12:52:19;9.00;;;8.00;;
16254;SDS011;8235;52.198;9.904;2023-04-06T12:54:47;8.43;;;7.43;;
16254;SDS011;8235;52.198;9.904;2023-04-06T12:57:13;8.57;;;7.23;;
16254;SDS011;8235;52.198;9.904;2023-04-06T12:59:43;7.83;;;7.03;;
16254;SDS011;8235;52.198;9.904;2023-04-06T13:02:11;7.53;;;6.33;;
16254;SDS011;8235;52.198;9.904;2023-04-06T13:04:37;7.93;;;7.07;;
16254;SDS011;8235;52.198;9.904;2023-04-06T13:07:04;8.80;;;7.87;;
16254;SDS011;8235;52.198;9.904;2023-04-06T13:09:31;7.80;;;7.00;;
16254;SDS011;8235;52.198;9.904;2023-04-06T13:11:59;8.67;;;7.47;;
16254;SDS011;8235;52.198;9.904;2023-04-06T13:14:26;10.00;;;6.83;;
16254;SDS011;8235;52.198;9.904;2023-04-06T13:16:54;8.97;;;7.33;;
16254;SDS011;8235;52.198;9.904;2023-04-06T13:19:20;8.53;;;7.50;;
16254;SDS011;8235;52.198;9.904;2023-04-06T13:21:47;8.87;;;7.23;;
16254;SDS011;8235;52.198;9.904;2023-04-06T13:24:14;7.33;;;6.43;;
16254;SDS011;8235;52.198;9.904;2023-04-06T13:26:41;8.30;;;6.93;;
16254;SDS011;8235;52.198;9.904;2023-04-06T13:29:08;9.33;;;6.83;;
16254;SDS011;8235;52.198;9.904;2023-04-06T13:31:34;7.93;;;6.10;;
16254;SDS011;8235;52.198;9.904;2023-04-06T13:34:02;7.87;;;6.50;;
16254;SDS011;8235;52.198;9.904;2023-04-06T13:36:29;7.27;;;6.43;;
16254;SDS011;8235;52.198;9.904;2023-04-06T13:38:56;7.23;;;6.20;;
16254;SDS011;8235;52.198;9.904;2023-04-06T13:41:23;8.30;;;5.93;;
16254;SDS011;8235;52.198;9.904;2023-04-06T13:43:51;9.03;;;6.30;;
16254;SDS011;8235;52.198;9.904;2023-04-06T13:46:18;6.83;;;5.63;;
16254;SDS011;8235;52.198;9.904;2023-04-06T13:48:44;6.83;;;6.13;;
16254;SDS011;8235;52.198;9.904;2023-04-06T13:51:13;7.57;;;5.77;;
16254;SDS011;8235;52.198;9.904;2023-04-06T13:53:40;7.33;;;6.20;;
16254;SDS011;8235;52.198;9.904;2023-04-06T13:56:07;7.67;;;6.53;;
16254;SDS011;8235;52.198;9.904;2023-04-06T13:58:34;8.27;;;6.53;;
16254;SDS011;8235;52.198;9.904;2023-04-06T14:01:01;6.97;;;5.80;;
16254;SDS011;8235;52.198;9.904;2023-04-06T14:03:29;7.67;;;6.30;;
16254;SDS011;8235;52.198;9.904;2023-04-06T14:05:56;7.20;;;6.37;;
16254;SDS011;8235;52.198;9.904;2023-04-06T14:08:24;6.80;;;5.93;;
16254;SDS011;8235;52.198;9.904;2023-04-06T14:10:50;6.83;;;5.90;;
16254;SDS011;8235;52.198;9.904;2023-04-06T14:13:17;6.60;;;6.00;;
16254;SDS011;8235;52.198;9.904;2023-04-06T14:15:44;8.23;;;6.27;;
16254;SDS011;8235;52.198;9.904;2023-04-06T14:18:10;8.90;;;6.57;;
16254;SDS011;8235;52.198;9.904;2023-04-06T14:20:37;7.00;;;6.30;;
16254;SDS011;8235;52.198;9.904;2023-04-06T14:23:03;8.00;;;6.50;;
16254;SDS011;8235;52.198;9.904;2023-04-06T14:25:31;6.73;;;6.07;;
16254;SDS011;8235;52.198;9.904;2023-04-06T14:27:59;7.87;;;6.47;;
16254;SDS011;8235;52.198;9.904;2023-04-06T14:30:26;9.10;;;6.83;;
16254;SDS011;8235;52.198;9.904;2023-04-06T14:32:52;8.47;;;5.80;;
16254;SDS011;8235;52.198;9.904;2023-04-06T14:35:19;6.73;;;6.03;;
16254;SDS011;8235;52.198;9.904;2023-04-06T14:37:45;8.77;;;6.90;;
16254;SDS011;8235;52.198;9.904;2023-04-06T14:40:12;7.37;;;6.50;;
16254;SDS011;8235;52.198;9.904;2023-04-06T14:42:40;8.97;;;6.77;;
16254;SDS011;8235;52.198;9.904;2023-04-06T14:45:06;7.60;;;6.57;;
16254;SDS011;8235;52.198;9.904;2023-04-06T14:47:33;7.20;;;6.30;;
16254;SDS011;8235;52.198;9.904;2023-04-06T14:50:00;9.80;;;5.93;;
16254;SDS011;8235;52.198;9.904;2023-04-06T14:52:26;8.40;;;6.50;;
16254;SDS011;8235;52.198;9.904;2023-04-06T14:54:53;9.43;;;7.17;;
16254;SDS011;8235;52.198;9.904;2023-04-06T14:57:19;8.57;;;6.77;;